createdAt,value
2022-11-30T00:00:31.897Z,3.00
2022-11-30T00:01:34.688Z,2.99
2022-11-30T00:02:37.522Z,2.92
2022-11-30T00:03:40.746Z,2.82
2022-11-30T00:04:43.508Z,2.81
2022-11-30T00:05:46.746Z,2.89
2022-11-30T00:06:49.817Z,2.87
2022-11-30T00:07:54.798Z,2.85
2022-11-30T00:08:58.868Z,2.80
2022-11-30T00:10:01.902Z,2.80
2022-11-30T00:11:28.182Z,2.84
2022-11-30T00:12:31.068Z,2.82
2022-11-30T00:13:37.686Z,2.81
2022-11-30T00:14:40.444Z,2.86
2022-11-30T00:15:43.172Z,2.76
2022-11-30T00:16:45.942Z,2.76
2022-11-30T00:17:48.774Z,2.75
2022-11-30T00:18:51.980Z,2.70
2022-11-30T00:19:56.253Z,2.65
2022-11-30T00:21:02.990Z,2.70
2022-11-30T00:22:05.697Z,2.77
2022-11-30T00:23:10.211Z,2.80
2022-11-30T00:24:13.120Z,2.71
2022-11-30T00:25:16.001Z,2.83
2022-11-30T00:26:22.880Z,2.77
2022-11-30T00:27:28.026Z,2.76
2022-11-30T00:28:33.342Z,2.84
2022-11-30T00:29:36.142Z,2.82
2022-11-30T00:30:39.116Z,2.84
2022-11-30T00:31:42.026Z,2.82
2022-11-30T00:32:44.950Z,2.82
2022-11-30T00:33:47.979Z,2.79
2022-11-30T00:34:50.843Z,2.87
2022-11-30T00:35:59.090Z,2.81
2022-11-30T00:37:01.964Z,2.76
2022-11-30T00:38:05.034Z,2.81
2022-11-30T00:39:07.966Z,2.79
2022-11-30T00:40:11.193Z,2.89
2022-11-30T00:41:14.543Z,2.92
2022-11-30T00:42:17.644Z,2.92
2022-11-30T00:43:20.709Z,2.82
2022-11-30T00:44:23.569Z,2.82
2022-11-30T00:45:26.596Z,2.69
2022-11-30T00:46:29.636Z,2.64
2022-11-30T00:47:32.631Z,2.65
2022-11-30T00:48:36.369Z,2.63
2022-11-30T00:49:39.214Z,2.70
2022-11-30T00:50:42.344Z,2.77
2022-11-30T00:51:45.137Z,2.88
2022-11-30T00:52:48.178Z,2.77
2022-11-30T00:53:51.098Z,2.80
2022-11-30T00:54:54.056Z,2.85
2022-11-30T00:55:56.979Z,2.89
2022-11-30T00:56:59.852Z,2.95
2022-11-30T00:58:03.138Z,2.84
2022-11-30T00:59:06.265Z,2.89
2022-11-30T01:00:09.943Z,2.83
2022-11-30T01:01:13.076Z,2.83
2022-11-30T01:02:16.320Z,2.74
2022-11-30T01:03:19.544Z,2.86
2022-11-30T01:04:22.640Z,2.87
2022-11-30T01:05:26.147Z,2.76
2022-11-30T01:06:29.187Z,2.86
2022-11-30T01:07:31.949Z,2.90
2022-11-30T01:08:35.746Z,2.71
2022-11-30T01:09:38.581Z,2.71
2022-11-30T01:10:43.301Z,2.76
2022-11-30T01:11:46.065Z,2.79
2022-11-30T01:12:49.796Z,2.81
2022-11-30T01:13:53.737Z,2.87
2022-11-30T01:14:56.515Z,2.89
2022-11-30T01:15:59.840Z,2.84
2022-11-30T01:17:02.845Z,2.89
2022-11-30T01:18:06.601Z,2.86
2022-11-30T01:19:09.415Z,2.83
2022-11-30T01:20:12.600Z,2.83
2022-11-30T01:21:19.494Z,2.77
2022-11-30T01:22:22.562Z,2.89
2022-11-30T01:23:25.561Z,2.96
2022-11-30T01:24:35.136Z,3.03
2022-11-30T01:25:38.532Z,2.95
2022-11-30T01:26:41.918Z,2.91
2022-11-30T01:27:48.350Z,2.97
2022-11-30T01:28:53.377Z,3.03
2022-11-30T01:29:56.411Z,3.03
2022-11-30T01:31:02.113Z,3.07
2022-11-30T01:32:05.410Z,3.00
2022-11-30T01:33:08.281Z,2.90
2022-11-30T01:34:11.483Z,2.92
2022-11-30T01:35:14.988Z,2.94
2022-11-30T01:36:21.039Z,2.94
2022-11-30T01:37:24.015Z,3.02
2022-11-30T01:38:27.817Z,2.98
2022-11-30T01:39:30.619Z,3.02
2022-11-30T01:40:33.587Z,2.96
2022-11-30T01:41:37.430Z,2.94
2022-11-30T01:42:47.145Z,2.96
2022-11-30T01:43:56.739Z,3.00
2022-11-30T01:45:01.740Z,3.02
2022-11-30T01:46:18.176Z,3.04
2022-11-30T01:47:43.580Z,2.94
2022-11-30T01:48:53.937Z,2.91
2022-11-30T01:50:08.858Z,2.98
2022-11-30T01:51:11.785Z,3.05
2022-11-30T01:52:22.699Z,2.95
2022-11-30T01:53:25.975Z,3.05
2022-11-30T01:54:52.137Z,3.00
2022-11-30T01:55:55.113Z,2.95
2022-11-30T01:57:03.497Z,2.99
2022-11-30T01:58:12.032Z,2.92
2022-11-30T01:59:15.822Z,2.83
2022-11-30T02:00:19.731Z,2.83
2022-11-30T02:01:22.581Z,2.81
2022-11-30T02:02:34.825Z,2.96
2022-11-30T02:03:56.328Z,2.94
2022-11-30T02:04:59.749Z,2.91
2022-11-30T02:06:03.334Z,2.92
2022-11-30T02:07:09.096Z,3.00
2022-11-30T02:08:16.343Z,3.02
2022-11-30T02:09:22.878Z,3.00
2022-11-30T02:10:29.673Z,3.07
2022-11-30T02:11:32.701Z,3.04
2022-11-30T02:13:04.200Z,3.03
2022-11-30T02:14:29.298Z,3.06
2022-11-30T02:15:47.170Z,3.01
2022-11-30T02:17:03.459Z,3.04
2022-11-30T02:18:14.944Z,2.98
2022-11-30T02:19:55.703Z,2.95
2022-11-30T02:21:07.185Z,2.89
2022-11-30T02:22:38.054Z,2.83
2022-11-30T02:24:15.806Z,2.85
2022-11-30T02:25:26.609Z,2.95
2022-11-30T02:26:36.885Z,2.98
2022-11-30T02:28:01.375Z,3.02
2022-11-30T02:29:28.871Z,3.05
2022-11-30T02:30:36.954Z,2.96
2022-11-30T02:31:57.740Z,3.15
2022-11-30T02:33:09.341Z,3.17
2022-11-30T02:34:16.114Z,3.11
2022-11-30T02:35:24.574Z,3.06
2022-11-30T02:36:28.976Z,3.15
2022-11-30T02:37:34.141Z,3.09
2022-11-30T02:38:38.594Z,3.11
2022-11-30T02:39:42.536Z,3.10
2022-11-30T02:40:45.592Z,3.15
2022-11-30T02:41:48.561Z,3.10
2022-11-30T02:42:52.788Z,3.08
2022-11-30T02:43:55.720Z,3.03
2022-11-30T02:44:59.086Z,3.06
2022-11-30T02:46:17.163Z,3.14
2022-11-30T02:47:43.583Z,3.10
2022-11-30T02:49:09.944Z,3.09
2022-11-30T02:50:29.871Z,3.10
2022-11-30T02:51:38.150Z,3.14
2022-11-30T02:52:41.761Z,3.14
2022-11-30T02:53:45.676Z,3.17
2022-11-30T02:54:48.909Z,3.21
2022-11-30T02:55:54.811Z,3.27
2022-11-30T02:56:58.306Z,3.28
2022-11-30T02:58:01.425Z,3.25
2022-11-30T02:59:05.418Z,3.25
2022-11-30T03:00:13.543Z,3.31
2022-11-30T03:01:16.449Z,3.28
2022-11-30T03:02:19.436Z,3.39
2022-11-30T03:03:22.437Z,3.49
2022-11-30T03:04:25.352Z,3.44
2022-11-30T03:05:28.371Z,3.35
2022-11-30T03:06:31.380Z,3.31
2022-11-30T03:07:34.686Z,3.37
2022-11-30T03:08:37.595Z,3.38
2022-11-30T03:09:40.759Z,3.36
2022-11-30T03:10:43.696Z,3.38
2022-11-30T03:11:46.811Z,3.53
2022-11-30T03:12:49.892Z,3.55
2022-11-30T03:13:53.024Z,3.52
2022-11-30T03:14:56.061Z,3.46
2022-11-30T03:15:59.179Z,3.52
2022-11-30T03:17:02.130Z,3.49
2022-11-30T03:18:05.733Z,3.51
2022-11-30T03:19:08.920Z,3.47
2022-11-30T03:20:11.984Z,3.55
2022-11-30T03:21:14.784Z,3.58
2022-11-30T03:22:17.681Z,3.62
2022-11-30T03:23:20.531Z,3.59
2022-11-30T03:24:23.454Z,3.63
2022-11-30T03:25:26.298Z,3.56
2022-11-30T03:26:29.780Z,3.61
2022-11-30T03:27:32.914Z,3.67
2022-11-30T03:28:37.110Z,3.53
2022-11-30T03:29:39.986Z,3.60
2022-11-30T03:30:53.305Z,3.59
2022-11-30T03:31:56.203Z,3.65
2022-11-30T03:32:59.146Z,3.65
2022-11-30T03:34:02.000Z,3.66
2022-11-30T03:35:05.280Z,3.63
2022-11-30T03:36:10.456Z,3.59
2022-11-30T03:37:13.366Z,3.63
2022-11-30T03:38:16.247Z,3.68
2022-11-30T03:39:19.370Z,3.74
2022-11-30T03:40:22.333Z,3.73
2022-11-30T03:41:25.234Z,3.73
2022-11-30T03:42:28.108Z,3.69
2022-11-30T03:43:31.731Z,3.69
2022-11-30T03:44:34.553Z,3.72
2022-11-30T03:45:37.437Z,3.82
2022-11-30T03:46:40.351Z,3.75
2022-11-30T03:47:44.210Z,3.78
2022-11-30T03:48:47.138Z,3.74
2022-11-30T03:49:50.238Z,3.65
2022-11-30T03:50:56.462Z,3.69
2022-11-30T03:51:59.597Z,3.71
2022-11-30T03:53:02.382Z,3.70
2022-11-30T03:54:05.680Z,3.72
2022-11-30T03:55:09.044Z,3.69
2022-11-30T03:56:13.040Z,3.81
2022-11-30T03:57:16.821Z,3.71
2022-11-30T03:58:20.035Z,3.73
2022-11-30T03:59:23.255Z,3.63
2022-11-30T04:00:26.217Z,3.68
2022-11-30T04:01:29.190Z,3.73
2022-11-30T04:02:32.418Z,3.60
2022-11-30T04:03:36.098Z,3.65
2022-11-30T04:04:39.124Z,3.64
2022-11-30T04:05:42.110Z,3.68
2022-11-30T04:06:45.379Z,3.68
2022-11-30T04:07:48.594Z,3.66
2022-11-30T04:08:51.637Z,3.66
2022-11-30T04:09:54.626Z,3.69
2022-11-30T04:10:59.495Z,3.75
2022-11-30T04:12:06.277Z,3.69
2022-11-30T04:13:09.199Z,3.61
2022-11-30T04:14:12.042Z,3.60
2022-11-30T04:15:15.326Z,3.59
2022-11-30T04:16:18.190Z,3.59
2022-11-30T04:17:21.408Z,3.71
2022-11-30T04:18:25.860Z,3.65
2022-11-30T04:19:28.792Z,3.66
2022-11-30T04:20:34.844Z,3.70
2022-11-30T04:22:47.568Z,3.64
2022-11-30T04:23:50.365Z,3.64
2022-11-30T04:24:53.100Z,3.65
2022-11-30T04:26:05.153Z,3.58
2022-11-30T04:27:11.441Z,3.54
2022-11-30T04:28:18.555Z,3.60
2022-11-30T04:29:21.638Z,3.52
2022-11-30T04:30:24.685Z,3.56
2022-11-30T04:31:27.550Z,3.52
2022-11-30T04:32:30.326Z,3.65
2022-11-30T04:33:33.329Z,3.65
2022-11-30T04:34:36.255Z,3.66
2022-11-30T04:35:51.861Z,3.62
2022-11-30T04:36:58.842Z,3.58
2022-11-30T04:38:03.336Z,3.53
2022-11-30T04:39:06.275Z,3.53
2022-11-30T04:40:09.563Z,3.54
2022-11-30T04:41:12.424Z,3.73
2022-11-30T04:42:15.218Z,3.68
2022-11-30T04:43:18.548Z,3.76
2022-11-30T04:44:21.334Z,3.69
2022-11-30T04:45:24.259Z,3.60
2022-11-30T04:46:27.322Z,3.60
2022-11-30T04:47:30.156Z,3.63
2022-11-30T04:48:33.742Z,3.61
2022-11-30T04:49:36.816Z,3.60
2022-11-30T04:50:39.742Z,3.81
2022-11-30T04:51:42.453Z,3.79
2022-11-30T04:52:45.421Z,3.71
2022-11-30T04:53:48.188Z,3.69
2022-11-30T04:54:51.856Z,3.75
2022-11-30T04:55:54.574Z,3.73
2022-11-30T04:56:57.472Z,3.80
2022-11-30T04:58:00.275Z,3.77
2022-11-30T04:59:03.209Z,3.73
2022-11-30T05:00:06.998Z,3.69
2022-11-30T05:01:10.284Z,3.67
2022-11-30T05:02:13.177Z,3.65
2022-11-30T05:03:16.173Z,3.64
2022-11-30T05:04:19.039Z,3.67
2022-11-30T05:05:21.939Z,3.64
2022-11-30T05:06:25.071Z,3.58
2022-11-30T05:07:28.048Z,3.63
2022-11-30T05:08:34.256Z,3.80
2022-11-30T05:09:37.822Z,3.69
2022-11-30T05:10:40.741Z,3.67
2022-11-30T05:11:43.742Z,3.63
2022-11-30T05:12:46.654Z,3.61
2022-11-30T05:13:49.453Z,3.60
2022-11-30T05:14:52.316Z,3.61
2022-11-30T05:15:58.463Z,3.63
2022-11-30T05:17:01.781Z,3.58
2022-11-30T05:18:04.776Z,3.63
2022-11-30T05:19:07.738Z,3.61
2022-11-30T05:20:11.076Z,3.57
2022-11-30T05:21:14.150Z,3.61
2022-11-30T05:22:17.067Z,3.61
2022-11-30T05:23:20.361Z,3.53
2022-11-30T05:24:23.302Z,3.48
2022-11-30T05:25:26.174Z,3.57
2022-11-30T05:26:28.941Z,3.57
2022-11-30T05:27:31.944Z,3.59
2022-11-30T05:28:34.931Z,3.59
2022-11-30T05:29:37.855Z,3.52
2022-11-30T05:30:42.613Z,3.45
2022-11-30T05:31:45.367Z,3.56
2022-11-30T05:32:48.272Z,3.54
2022-11-30T05:33:54.567Z,3.56
2022-11-30T05:34:57.622Z,3.59
2022-11-30T05:36:04.605Z,3.54
2022-11-30T05:37:10.848Z,3.63
2022-11-30T05:38:13.672Z,3.57
2022-11-30T05:39:16.576Z,3.64
2022-11-30T05:40:19.420Z,3.63
2022-11-30T05:41:22.688Z,3.65
2022-11-30T05:42:25.757Z,3.61
2022-11-30T05:43:28.881Z,3.69
2022-11-30T05:44:31.842Z,3.64
2022-11-30T05:45:34.818Z,3.71
2022-11-30T05:46:40.943Z,3.70
2022-11-30T05:47:44.549Z,3.79
2022-11-30T05:48:47.459Z,3.71
2022-11-30T05:49:50.510Z,3.68
2022-11-30T05:50:53.330Z,3.60
2022-11-30T05:51:56.143Z,3.54
2022-11-30T05:53:01.100Z,3.58
2022-11-30T05:54:04.014Z,3.55
2022-11-30T05:55:07.157Z,3.50
2022-11-30T05:56:13.287Z,3.52
2022-11-30T05:57:16.243Z,3.55
2022-11-30T05:58:19.602Z,3.63
2022-11-30T05:59:23.535Z,3.65
2022-11-30T06:00:26.560Z,3.57
2022-11-30T06:01:29.986Z,3.53
2022-11-30T06:02:32.981Z,3.65
2022-11-30T06:03:36.380Z,3.70
2022-11-30T06:04:39.299Z,3.75
2022-11-30T06:05:42.158Z,3.63
2022-11-30T06:06:45.325Z,3.61
2022-11-30T06:07:48.330Z,3.66
2022-11-30T06:08:51.331Z,3.55
2022-11-30T06:09:54.048Z,3.57
2022-11-30T06:11:01.312Z,3.74
2022-11-30T06:12:04.141Z,3.75
2022-11-30T06:13:10.864Z,3.65
2022-11-30T06:14:13.615Z,3.59
2022-11-30T06:15:18.443Z,3.51
2022-11-30T06:16:21.243Z,3.55
2022-11-30T06:17:24.147Z,3.49
2022-11-30T06:18:30.274Z,3.56
2022-11-30T06:19:33.108Z,3.62
2022-11-30T06:20:35.913Z,3.58
2022-11-30T06:21:38.791Z,3.59
2022-11-30T06:22:45.362Z,3.65
2022-11-30T06:23:48.323Z,3.78
2022-11-30T06:24:51.239Z,3.78
2022-11-30T06:25:54.095Z,3.61
2022-11-30T06:26:57.752Z,3.64
2022-11-30T06:28:00.795Z,3.62
2022-11-30T06:29:03.887Z,3.72
2022-11-30T06:30:07.100Z,3.67
2022-11-30T06:31:11.357Z,3.70
2022-11-30T06:32:14.274Z,3.62
2022-11-30T06:33:21.974Z,3.72
2022-11-30T06:34:24.905Z,3.69
2022-11-30T06:35:27.802Z,3.65
2022-11-30T06:36:35.864Z,3.63
2022-11-30T06:37:39.626Z,3.64
2022-11-30T06:38:42.488Z,3.59
2022-11-30T06:41:10.785Z,3.61
2022-11-30T06:42:13.797Z,3.59
2022-11-30T06:43:16.740Z,3.62
2022-11-30T06:44:19.673Z,3.62
2022-11-30T06:45:22.581Z,3.76
2022-11-30T06:46:27.136Z,3.68
2022-11-30T06:47:29.983Z,3.59
2022-11-30T06:48:33.006Z,3.65
2022-11-30T06:49:35.826Z,3.68
2022-11-30T06:50:38.697Z,3.67
2022-11-30T06:51:41.528Z,3.69
2022-11-30T06:52:44.238Z,3.75
2022-11-30T06:53:47.460Z,3.70
2022-11-30T06:54:51.601Z,3.71
2022-11-30T06:55:54.460Z,3.68
2022-11-30T06:56:58.138Z,3.78
2022-11-30T06:58:08.227Z,3.73
2022-11-30T06:59:11.295Z,3.80
2022-11-30T07:00:14.832Z,3.75
2022-11-30T07:01:17.814Z,3.72
2022-11-30T07:02:21.052Z,3.70
2022-11-30T07:03:23.872Z,3.67
2022-11-30T07:04:26.759Z,3.76
2022-11-30T07:05:29.971Z,3.75
2022-11-30T07:06:32.921Z,3.83
2022-11-30T07:07:35.860Z,3.87
2022-11-30T07:08:40.077Z,3.70
2022-11-30T07:09:43.198Z,3.72
2022-11-30T07:10:47.563Z,3.76
2022-11-30T07:11:50.438Z,3.78
2022-11-30T07:12:53.274Z,3.82
2022-11-30T07:13:56.055Z,3.71
2022-11-30T07:15:02.531Z,3.82
2022-11-30T07:16:08.715Z,3.80
2022-11-30T07:17:12.518Z,3.78
2022-11-30T07:18:15.568Z,3.78
2022-11-30T07:19:19.149Z,3.74
2022-11-30T07:20:23.789Z,3.84
2022-11-30T07:21:26.733Z,3.91
2022-11-30T07:22:29.558Z,3.80
2022-11-30T07:23:56.353Z,3.79
2022-11-30T07:25:18.179Z,3.84
2022-11-30T07:26:22.375Z,3.80
2022-11-30T07:27:25.297Z,3.79
2022-11-30T07:28:28.394Z,3.76
2022-11-30T07:29:31.351Z,3.87
2022-11-30T07:30:37.498Z,3.96
2022-11-30T07:31:40.344Z,3.89
2022-11-30T07:32:46.423Z,3.84
2022-11-30T07:33:50.628Z,3.80
2022-11-30T07:34:53.325Z,3.86
2022-11-30T07:35:56.079Z,3.86
2022-11-30T07:37:02.530Z,3.92
2022-11-30T07:38:09.613Z,3.95
2022-11-30T07:39:13.748Z,3.96
2022-11-30T07:40:16.959Z,4.12
2022-11-30T07:41:19.681Z,4.14
2022-11-30T07:42:23.169Z,4.08
2022-11-30T07:43:25.819Z,4.22
2022-11-30T07:44:28.531Z,4.20
2022-11-30T07:45:31.387Z,4.24
2022-11-30T07:46:36.267Z,4.16
2022-11-30T07:47:42.480Z,4.15
2022-11-30T07:48:46.116Z,4.18
2022-11-30T07:49:52.494Z,4.20
2022-11-30T07:50:55.368Z,4.19
2022-11-30T07:51:58.080Z,4.20
2022-11-30T07:53:00.922Z,4.27
2022-11-30T07:54:04.079Z,4.24
2022-11-30T07:55:07.628Z,4.21
2022-11-30T07:56:13.210Z,4.21
2022-11-30T07:57:16.372Z,4.34
2022-11-30T07:58:19.125Z,4.39
2022-11-30T07:59:22.102Z,4.39
2022-11-30T08:00:25.127Z,4.40
2022-11-30T08:01:33.061Z,4.44
2022-11-30T08:02:37.732Z,4.51
2022-11-30T08:03:44.503Z,4.50
2022-11-30T08:04:47.721Z,4.46
2022-11-30T08:05:50.858Z,4.53
2022-11-30T08:06:55.197Z,4.53
2022-11-30T08:07:58.031Z,4.73
2022-11-30T08:09:04.794Z,4.72
2022-11-30T08:10:08.292Z,4.66
2022-11-30T08:11:13.479Z,4.69
2022-11-30T08:12:16.350Z,4.74
2022-11-30T08:13:19.105Z,4.79
2022-11-30T08:14:21.850Z,4.77
2022-11-30T08:15:31.889Z,4.76
2022-11-30T08:16:40.368Z,4.79
2022-11-30T08:17:43.537Z,4.80
2022-11-30T08:18:47.800Z,4.89
2022-11-30T08:19:54.360Z,4.96
2022-11-30T08:21:01.767Z,4.96
2022-11-30T08:22:04.514Z,5.01
2022-11-30T08:23:07.321Z,5.10
2022-11-30T08:24:14.147Z,4.99
2022-11-30T08:25:17.171Z,5.01
2022-11-30T08:26:23.817Z,5.09
2022-11-30T08:27:27.212Z,4.97
2022-11-30T08:28:30.768Z,5.00
2022-11-30T08:29:33.656Z,5.00
2022-11-30T08:30:36.610Z,4.99
2022-11-30T08:31:39.969Z,4.96
2022-11-30T08:32:42.752Z,5.07
2022-11-30T08:33:45.897Z,5.00
2022-11-30T08:34:48.896Z,5.08
2022-11-30T08:35:51.943Z,5.19
2022-11-30T08:36:58.686Z,5.24
2022-11-30T08:38:01.493Z,5.18
2022-11-30T08:39:06.817Z,5.09
2022-11-30T08:40:10.838Z,5.08
2022-11-30T08:41:15.578Z,5.20
2022-11-30T08:42:18.581Z,5.15
2022-11-30T08:43:21.715Z,5.18
2022-11-30T08:44:24.480Z,5.16
2022-11-30T08:45:27.213Z,5.20
2022-11-30T08:47:55.315Z,5.17
2022-11-30T08:49:19.935Z,5.18
2022-11-30T08:50:23.180Z,5.19
2022-11-30T08:51:25.971Z,5.32
2022-11-30T08:52:32.056Z,5.32
2022-11-30T08:53:34.943Z,5.44
2022-11-30T08:54:40.366Z,5.36
2022-11-30T08:55:43.206Z,5.23
2022-11-30T08:56:46.015Z,5.38
2022-11-30T08:57:48.780Z,5.36
2022-11-30T08:58:51.691Z,5.33
2022-11-30T08:59:54.461Z,5.33
2022-11-30T09:01:13.710Z,5.41
2022-11-30T09:02:18.861Z,5.30
2022-11-30T09:03:22.030Z,5.33
2022-11-30T09:04:24.780Z,5.37
2022-11-30T09:05:27.569Z,5.33
2022-11-30T09:06:30.799Z,5.41
2022-11-30T09:07:33.761Z,5.42
2022-11-30T09:08:39.644Z,5.43
2022-11-30T09:09:44.040Z,5.45
2022-11-30T09:10:46.957Z,5.38
2022-11-30T09:11:49.843Z,5.32
2022-11-30T09:12:52.767Z,5.37
2022-11-30T09:13:57.613Z,5.40
2022-11-30T09:15:00.752Z,5.40
2022-11-30T09:16:04.218Z,5.39
2022-11-30T09:17:07.252Z,5.43
2022-11-30T09:18:10.212Z,5.39
2022-11-30T09:19:13.093Z,5.33
2022-11-30T09:20:16.206Z,5.41
2022-11-30T09:21:21.776Z,5.45
2022-11-30T09:22:24.732Z,5.40
2022-11-30T09:23:28.117Z,5.39
2022-11-30T09:24:31.169Z,5.38
2022-11-30T09:25:33.944Z,5.43
2022-11-30T09:26:37.033Z,5.47
2022-11-30T09:27:39.830Z,5.54
2022-11-30T09:28:42.691Z,5.52
2022-11-30T09:29:45.798Z,5.47
2022-11-30T09:30:52.763Z,5.53
2022-11-30T09:31:55.915Z,5.58
2022-11-30T09:33:00.700Z,5.62
2022-11-30T09:34:03.533Z,5.65
2022-11-30T09:35:11.339Z,5.64
2022-11-30T09:36:18.708Z,5.63
2022-11-30T09:37:22.354Z,5.61
2022-11-30T09:38:25.838Z,5.65
2022-11-30T09:39:28.643Z,5.75
2022-11-30T09:40:35.669Z,5.61
2022-11-30T09:42:22.223Z,5.69
2022-11-30T09:44:09.826Z,5.66
2022-11-30T09:45:30.799Z,5.61
2022-11-30T09:46:46.417Z,5.64
2022-11-30T09:48:02.942Z,5.67
2022-11-30T09:49:25.238Z,5.78
2022-11-30T09:50:33.089Z,5.76
2022-11-30T09:51:47.711Z,5.73
2022-11-30T09:53:19.776Z,5.75
2022-11-30T09:54:45.597Z,5.61
2022-11-30T09:55:48.765Z,5.49
2022-11-30T09:56:52.466Z,5.56
2022-11-30T09:58:03.142Z,5.68
2022-11-30T09:59:12.345Z,5.68
2022-11-30T10:00:19.321Z,5.78
2022-11-30T10:01:23.069Z,5.75
2022-11-30T10:02:30.872Z,5.65
2022-11-30T10:03:34.157Z,5.67
2022-11-30T10:04:36.980Z,5.59
2022-11-30T10:05:42.654Z,5.60
2022-11-30T10:06:50.995Z,5.54
2022-11-30T10:08:11.030Z,5.53
2022-11-30T10:10:09.354Z,5.55
2022-11-30T10:11:33.053Z,5.66
2022-11-30T10:13:08.426Z,5.64
2022-11-30T10:14:29.271Z,5.73
2022-11-30T10:16:14.131Z,5.62
2022-11-30T10:17:34.921Z,5.57
2022-11-30T10:19:05.786Z,5.64
2022-11-30T10:20:17.117Z,5.75
2022-11-30T10:22:01.638Z,5.77
2022-11-30T10:23:18.683Z,5.80
2022-11-30T10:24:36.478Z,5.79
2022-11-30T10:26:23.095Z,5.75
2022-11-30T10:27:49.186Z,5.79
2022-11-30T10:28:54.721Z,5.82
2022-11-30T10:30:00.135Z,5.83
2022-11-30T10:31:03.860Z,5.77
2022-11-30T10:32:30.426Z,5.89
2022-11-30T10:33:41.872Z,5.87
2022-11-30T10:34:52.623Z,5.83
2022-11-30T10:36:07.086Z,5.72
2022-11-30T10:37:18.296Z,5.79
2022-11-30T10:38:51.432Z,5.79
2022-11-30T10:40:00.097Z,5.68
2022-11-30T10:41:30.572Z,5.63
2022-11-30T10:42:45.817Z,5.65
2022-11-30T10:44:06.744Z,5.63
2022-11-30T10:45:20.434Z,5.65
2022-11-30T10:46:37.614Z,5.74
2022-11-30T10:47:47.981Z,5.56
2022-11-30T10:48:59.366Z,5.56
2022-11-30T10:50:02.900Z,5.51
2022-11-30T10:51:07.362Z,5.56
2022-11-30T10:52:12.902Z,5.53
2022-11-30T10:53:15.750Z,5.48
2022-11-30T10:54:22.991Z,5.60
2022-11-30T10:55:31.978Z,5.61
2022-11-30T10:56:36.588Z,5.65
2022-11-30T10:57:39.341Z,5.67
2022-11-30T10:58:54.825Z,5.67
2022-11-30T11:00:00.496Z,5.68
2022-11-30T11:01:08.014Z,5.73
2022-11-30T11:02:32.664Z,5.66
2022-11-30T11:03:35.859Z,5.70
2022-11-30T11:04:38.672Z,5.69
2022-11-30T11:05:41.504Z,5.71
2022-11-30T11:07:09.575Z,5.68
2022-11-30T11:08:29.679Z,5.64
2022-11-30T11:09:39.014Z,5.76
2022-11-30T11:10:49.978Z,5.67
2022-11-30T11:12:02.374Z,5.66
2022-11-30T11:13:05.818Z,5.75
2022-11-30T11:14:31.360Z,5.64
2022-11-30T11:15:38.005Z,5.54
2022-11-30T11:17:03.054Z,5.61
2022-11-30T11:18:19.236Z,5.64
2022-11-30T11:19:38.423Z,5.65
2022-11-30T11:20:43.616Z,5.64
2022-11-30T11:22:59.035Z,5.67
2022-11-30T11:24:09.821Z,5.77
2022-11-30T11:25:27.446Z,5.80
2022-11-30T11:26:35.232Z,5.70
2022-11-30T11:27:44.197Z,5.74
2022-11-30T11:28:53.710Z,5.70
2022-11-30T11:30:12.438Z,5.77
2022-11-30T11:31:17.207Z,5.65
2022-11-30T11:32:27.915Z,5.65
2022-11-30T11:33:30.767Z,5.62
2022-11-30T11:34:35.880Z,5.63
2022-11-30T11:35:50.509Z,5.65
2022-11-30T11:37:12.652Z,5.75
2022-11-30T11:38:43.338Z,5.71
2022-11-30T11:39:58.490Z,5.77
2022-11-30T11:41:12.775Z,5.73
2022-11-30T11:42:22.503Z,5.77
2022-11-30T11:43:28.734Z,5.63
2022-11-30T11:44:32.191Z,5.65
2022-11-30T11:45:38.605Z,5.65
2022-11-30T11:47:03.865Z,5.67
2022-11-30T11:48:29.239Z,5.66
2022-11-30T11:49:37.582Z,5.63
2022-11-30T11:52:21.607Z,5.80
2022-11-30T11:53:55.494Z,5.87
2022-11-30T11:55:10.520Z,5.76
2022-11-30T11:56:28.005Z,5.59
2022-11-30T11:57:41.837Z,5.71
2022-11-30T11:58:52.511Z,5.81
2022-11-30T12:00:01.586Z,5.87
2022-11-30T12:01:38.569Z,5.85
2022-11-30T12:02:52.427Z,5.88
2022-11-30T12:04:05.973Z,5.77
2022-11-30T12:05:33.704Z,5.77
2022-11-30T12:06:37.349Z,5.68
2022-11-30T12:08:06.006Z,5.75
2022-11-30T12:09:18.329Z,5.76
2022-11-30T12:10:53.182Z,5.72
2022-11-30T12:11:56.387Z,5.64
2022-11-30T12:12:59.648Z,5.67
2022-11-30T12:14:09.528Z,5.76
2022-11-30T12:15:13.228Z,5.68
2022-11-30T12:16:38.083Z,5.76
2022-11-30T12:18:15.950Z,5.69
2022-11-30T12:19:33.876Z,5.75
2022-11-30T12:21:06.449Z,5.86
2022-11-30T12:22:38.046Z,5.85
2022-11-30T12:24:19.575Z,5.72
2022-11-30T12:25:28.466Z,5.76
2022-11-30T12:26:53.595Z,5.82
2022-11-30T12:28:19.551Z,5.83
2022-11-30T12:29:41.153Z,5.83
2022-11-30T12:31:18.246Z,5.89
2022-11-30T12:32:58.211Z,5.88
2022-11-30T12:34:17.550Z,6.09
2022-11-30T12:35:27.319Z,5.93
2022-11-30T12:37:02.419Z,5.91
2022-11-30T12:38:14.486Z,5.83
2022-11-30T12:40:00.670Z,5.88
2022-11-30T12:41:28.623Z,5.93
2022-11-30T12:42:52.820Z,5.85
2022-11-30T12:44:13.731Z,5.89
2022-11-30T12:45:43.861Z,5.80
2022-11-30T12:47:18.013Z,5.86
2022-11-30T12:48:39.596Z,5.77
2022-11-30T12:50:05.297Z,5.87
2022-11-30T12:51:29.396Z,5.93
2022-11-30T12:52:57.167Z,6.01
2022-11-30T12:54:24.352Z,5.98
2022-11-30T12:55:29.706Z,6.10
2022-11-30T12:56:46.692Z,5.99
2022-11-30T12:58:13.652Z,5.97
2022-11-30T12:59:25.192Z,6.01
2022-11-30T13:00:54.069Z,6.09
2022-11-30T13:02:18.699Z,5.97
2022-11-30T13:03:58.058Z,5.99
2022-11-30T13:05:06.897Z,6.14
2022-11-30T13:06:15.068Z,6.14
2022-11-30T13:07:51.701Z,6.20
2022-11-30T13:09:15.175Z,6.24
2022-11-30T13:10:37.780Z,6.24
2022-11-30T13:11:47.398Z,6.10
2022-11-30T13:12:53.359Z,6.15
2022-11-30T13:13:59.662Z,6.25
2022-11-30T13:15:11.074Z,6.25
2022-11-30T13:16:20.844Z,6.34
2022-11-30T13:17:24.688Z,6.30
2022-11-30T13:18:28.632Z,6.25
2022-11-30T13:19:40.217Z,6.19
2022-11-30T13:20:48.155Z,6.16
2022-11-30T13:21:58.367Z,6.08
2022-11-30T13:23:34.437Z,6.17
2022-11-30T13:24:42.431Z,6.17
2022-11-30T13:26:08.189Z,6.05
2022-11-30T13:27:37.684Z,5.97
2022-11-30T13:28:40.423Z,5.97
2022-11-30T13:30:13.526Z,6.04
2022-11-30T13:31:23.400Z,5.86
2022-11-30T13:32:56.677Z,5.97
2022-11-30T13:34:00.268Z,5.89
2022-11-30T13:35:38.187Z,5.98
2022-11-30T13:36:45.421Z,6.02
2022-11-30T13:39:31.763Z,6.01
2022-11-30T13:40:34.973Z,5.83
2022-11-30T13:41:38.522Z,5.83
2022-11-30T13:42:51.420Z,5.89
2022-11-30T13:43:54.446Z,5.81
2022-11-30T13:45:17.921Z,5.96
2022-11-30T13:46:24.127Z,5.96
2022-11-30T13:47:31.166Z,5.93
2022-11-30T13:48:43.639Z,5.93
2022-11-30T13:49:47.369Z,5.89
2022-11-30T13:50:50.229Z,5.90
2022-11-30T13:52:20.741Z,5.97
2022-11-30T13:53:23.722Z,5.93
2022-11-30T13:54:45.144Z,5.90
2022-11-30T13:55:48.126Z,6.08
2022-11-30T13:58:05.490Z,5.85
2022-11-30T13:59:25.639Z,5.68
2022-11-30T14:00:31.415Z,5.57
2022-11-30T14:01:37.538Z,5.59
2022-11-30T14:02:43.698Z,5.53
2022-11-30T14:04:15.319Z,5.59
2022-11-30T14:05:18.223Z,5.64
2022-11-30T14:06:39.439Z,5.62
2022-11-30T14:07:51.341Z,5.50
2022-11-30T14:08:54.181Z,5.59
2022-11-30T14:09:58.943Z,5.46
2022-11-30T14:11:33.050Z,5.47
2022-11-30T14:12:46.006Z,5.54
2022-11-30T14:13:48.804Z,5.53
2022-11-30T14:14:51.602Z,5.64
2022-11-30T14:16:00.156Z,5.54
2022-11-30T14:17:03.714Z,5.56
2022-11-30T14:18:09.128Z,5.45
2022-11-30T14:19:12.408Z,5.40
2022-11-30T14:20:22.604Z,5.48
2022-11-30T14:21:36.973Z,5.47
2022-11-30T14:22:40.714Z,5.48
2022-11-30T14:23:59.212Z,5.55
2022-11-30T14:25:03.420Z,5.57
2022-11-30T14:26:12.688Z,5.52
2022-11-30T14:27:23.093Z,5.38
2022-11-30T14:28:52.352Z,5.38
2022-11-30T14:30:02.231Z,5.32
2022-11-30T14:31:18.635Z,5.37
2022-11-30T14:32:35.625Z,5.47
2022-11-30T14:33:55.885Z,5.50
2022-11-30T14:35:08.220Z,5.45
2022-11-30T14:36:15.506Z,5.40
2022-11-30T14:37:31.735Z,5.39
2022-11-30T14:38:41.469Z,5.42
2022-11-30T14:39:46.709Z,5.43
2022-11-30T14:40:51.270Z,5.32
2022-11-30T14:41:54.870Z,5.37
2022-11-30T14:43:02.749Z,5.35
2022-11-30T14:44:14.562Z,5.34
2022-11-30T14:45:26.729Z,5.31
2022-11-30T14:46:30.965Z,5.29
2022-11-30T14:47:35.889Z,5.38
2022-11-30T14:48:39.078Z,5.34
2022-11-30T14:49:52.392Z,5.30
2022-11-30T14:51:02.899Z,5.34
2022-11-30T14:52:05.791Z,5.29
2022-11-30T14:53:30.180Z,5.24
2022-11-30T14:54:41.369Z,5.23
2022-11-30T14:55:56.873Z,5.29
2022-11-30T14:57:07.728Z,5.36
2022-11-30T14:58:35.502Z,5.29
2022-11-30T14:59:48.109Z,5.24
2022-11-30T15:00:52.215Z,5.25
2022-11-30T15:02:02.313Z,5.18
2022-11-30T15:03:06.405Z,5.31
2022-11-30T15:04:16.334Z,5.19
2022-11-30T15:05:28.665Z,5.16
2022-11-30T15:06:33.889Z,5.11
2022-11-30T15:07:37.631Z,5.18
2022-11-30T15:08:53.542Z,5.13
2022-11-30T15:10:07.134Z,5.14
2022-11-30T15:11:13.056Z,5.11
2022-11-30T15:12:21.815Z,5.09
2022-11-30T15:13:24.660Z,5.28
2022-11-30T15:14:27.561Z,5.16
2022-11-30T15:15:38.713Z,5.09
2022-11-30T15:16:58.284Z,5.01
2022-11-30T15:18:16.703Z,5.09